sensor_id;sensor_type;location;lat;lon;timestamp;P1;P2;P0
46302;PMS7003;32029;51.358;5.628;2022-09-13T00:00:50;15.67;15.67;12.00
46302;PMS7003;32029;51.358;5.628;2022-09-13T00:03:19;13.00;13.00;11.00
46302;PMS7003;32029;51.358;5.628;2022-09-13T00:05:46;14.33;14.33;10.33
46302;PMS7003;32029;51.358;5.628;2022-09-13T00:08:14;16.67;14.00;11.00
46302;PMS7003;32029;51.358;5.628;2022-09-13T00:10:41;18.50;14.50;10.50
46302;PMS7003;32029;51.358;5.628;2022-09-13T00:13:09;16.00;16.00;13.00
46302;PMS7003;32029;51.358;5.628;2022-09-13T00:15:41;16.00;14.33;10.33
46302;PMS7003;32029;51.358;5.628;2022-09-13T00:18:09;16.00;15.00;12.33
46302;PMS7003;32029;51.358;5.628;2022-09-13T00:20:36;14.33;14.33;11.00
46302;PMS7003;32029;51.358;5.628;2022-09-13T00:23:03;13.00;13.00;9.33
46302;PMS7003;32029;51.358;5.628;2022-09-13T00:25:30;16.67;15.67;11.00
46302;PMS7003;32029;51.358;5.628;2022-09-13T00:27:57;15.00;13.33;11.00
46302;PMS7003;32029;51.358;5.628;2022-09-13T00:30:24;16.00;16.00;11.00
46302;PMS7003;32029;51.358;5.628;2022-09-13T00:32:51;16.33;14.00;11.00
46302;PMS7003;32029;51.358;5.628;2022-09-13T00:35:18;17.00;16.00;12.00
46302;PMS7003;32029;51.358;5.628;2022-09-13T00:37:44;12.33;11.33;8.33
46302;PMS7003;32029;51.358;5.628;2022-09-13T00:40:11;11.00;11.00;9.00
46302;PMS7003;32029;51.358;5.628;2022-09-13T00:42:38;13.67;13.00;10.00
46302;PMS7003;32029;51.358;5.628;2022-09-13T00:53:01;16.00;14.67;11.33
46302;PMS7003;32029;51.358;5.628;2022-09-13T00:55:43;14.33;14.33;11.00
46302;PMS7003;32029;51.358;5.628;2022-09-13T00:58:17;14.67;13.00;10.00
46302;PMS7003;32029;51.358;5.628;2022-09-13T01:00:49;17.67;16.33;12.67
46302;PMS7003;32029;51.358;5.628;2022-09-13T01:03:19;12.33;12.33;10.00
46302;PMS7003;32029;51.358;5.628;2022-09-13T01:05:51;10.33;10.33;9.33
46302;PMS7003;32029;51.358;5.628;2022-09-13T01:08:23;12.33;12.33;9.33
46302;PMS7003;32029;51.358;5.628;2022-09-13T01:10:52;14.00;13.00;11.00
46302;PMS7003;32029;51.358;5.628;2022-09-13T01:13:22;11.00;11.00;10.00
46302;PMS7003;32029;51.358;5.628;2022-09-13T01:15:51;13.67;12.67;10.00
46302;PMS7003;32029;51.358;5.628;2022-09-13T01:18:19;14.00;14.00;10.00
46302;PMS7003;32029;51.358;5.628;2022-09-13T01:45:55;16.67;15.67;11.67
46302;PMS7003;32029;51.358;5.628;2022-09-13T01:48:46;13.00;13.00;9.67
46302;PMS7003;32029;51.358;5.628;2022-09-13T01:51:27;15.00;14.33;10.33
46302;PMS7003;32029;51.358;5.628;2022-09-13T01:59:47;12.33;12.33;11.00
46302;PMS7003;32029;51.358;5.628;2022-09-13T02:02:33;15.00;14.00;11.00
46302;PMS7003;32029;51.358;5.628;2022-09-13T02:05:04;14.33;13.33;10.33
46302;PMS7003;32029;51.358;5.628;2022-09-13T02:07:39;18.00;14.00;10.67
46302;PMS7003;32029;51.358;5.628;2022-09-13T02:10:28;14.00;13.00;10.00
46302;PMS7003;32029;51.358;5.628;2022-09-13T02:13:00;15.00;12.33;9.00
46302;PMS7003;32029;51.358;5.628;2022-09-13T02:15:48;12.33;12.33;10.33
46302;PMS7003;32029;51.358;5.628;2022-09-13T02:18:21;13.33;12.00;9.00
46302;PMS7003;32029;51.358;5.628;2022-09-13T02:21:08;14.33;14.00;11.33
46302;PMS7003;32029;51.358;5.628;2022-09-13T02:24:07;20.00;13.33;11.00
46302;PMS7003;32029;51.358;5.628;2022-09-13T02:26:38;14.00;13.00;10.00
46302;PMS7003;32029;51.358;5.628;2022-09-13T02:29:09;14.67;14.67;12.00
46302;PMS7003;32029;51.358;5.628;2022-09-13T02:31:41;18.67;17.00;12.00
46302;PMS7003;32029;51.358;5.628;2022-09-13T02:34:17;16.67;14.67;12.00
46302;PMS7003;32029;51.358;5.628;2022-09-13T02:36:53;13.67;13.67;11.33
46302;PMS7003;32029;51.358;5.628;2022-09-13T02:39:25;12.33;12.33;9.33
46302;PMS7003;32029;51.358;5.628;2022-09-13T02:44:35;12.00;11.67;10.00
46302;PMS7003;32029;51.358;5.628;2022-09-13T02:47:09;14.00;12.33;10.33
46302;PMS7003;32029;51.358;5.628;2022-09-13T02:58:46;14.67;14.67;11.67
46302;PMS7003;32029;51.358;5.628;2022-09-13T03:01:24;13.00;13.00;11.00
46302;PMS7003;32029;51.358;5.628;2022-09-13T03:03:51;16.00;13.00;10.67
46302;PMS7003;32029;51.358;5.628;2022-09-13T03:06:21;13.00;13.00;10.67
46302;PMS7003;32029;51.358;5.628;2022-09-13T03:08:55;14.00;14.00;11.67
46302;PMS7003;32029;51.358;5.628;2022-09-13T03:14:36;15.00;15.00;11.00
46302;PMS7003;32029;51.358;5.628;2022-09-13T03:17:13;12.67;12.67;10.00
46302;PMS7003;32029;51.358;5.628;2022-09-13T03:26:02;11.00;11.00;9.00
46302;PMS7003;32029;51.358;5.628;2022-09-13T03:31:49;15.00;14.00;11.00
46302;PMS7003;32029;51.358;5.628;2022-09-13T03:34:50;13.00;13.00;10.33
46302;PMS7003;32029;51.358;5.628;2022-09-13T03:37:31;17.00;15.00;11.00
46302;PMS7003;32029;51.358;5.628;2022-09-13T03:40:04;15.33;14.00;11.33
46302;PMS7003;32029;51.358;5.628;2022-09-13T03:45:11;16.67;16.67;12.00
46302;PMS7003;32029;51.358;5.628;2022-09-13T03:47:41;17.33;16.33;13.00
46302;PMS7003;32029;51.358;5.628;2022-09-13T03:50:13;15.33;15.33;13.00
46302;PMS7003;32029;51.358;5.628;2022-09-13T03:52:45;15.33;14.00;11.67
46302;PMS7003;32029;51.358;5.628;2022-09-13T03:55:16;14.50;14.00;11.50
46302;PMS7003;32029;51.358;5.628;2022-09-13T03:57:45;13.00;13.00;10.33
46302;PMS7003;32029;51.358;5.628;2022-09-13T04:00:13;14.33;14.33;11.67
46302;PMS7003;32029;51.358;5.628;2022-09-13T04:02:40;17.33;14.00;11.33
46302;PMS7003;32029;51.358;5.628;2022-09-13T04:05:07;18.33;16.67;12.67
46302;PMS7003;32029;51.358;5.628;2022-09-13T04:07:34;15.33;13.00;11.00
46302;PMS7003;32029;51.358;5.628;2022-09-13T04:10:01;12.67;12.00;9.67
46302;PMS7003;32029;51.358;5.628;2022-09-13T04:12:28;13.33;12.67;10.00
46302;PMS7003;32029;51.358;5.628;2022-09-13T04:14:56;15.33;13.33;10.67
46302;PMS7003;32029;51.358;5.628;2022-09-13T04:17:23;15.00;15.00;12.00
46302;PMS7003;32029;51.358;5.628;2022-09-13T04:19:50;12.67;12.67;10.33
46302;PMS7003;32029;51.358;5.628;2022-09-13T04:22:17;15.00;12.33;9.00
46302;PMS7003;32029;51.358;5.628;2022-09-13T04:24:43;13.67;12.67;10.00
46302;PMS7003;32029;51.358;5.628;2022-09-13T04:27:11;15.00;13.67;10.00
46302;PMS7003;32029;51.358;5.628;2022-09-13T04:29:38;12.00;11.67;10.00
46302;PMS7003;32029;51.358;5.628;2022-09-13T04:32:05;14.00;14.00;10.00
46302;PMS7003;32029;51.358;5.628;2022-09-13T04:34:33;11.00;9.80;8.00
46302;PMS7003;32029;51.358;5.628;2022-09-13T04:37:00;10.67;10.67;9.00
46302;PMS7003;32029;51.358;5.628;2022-09-13T04:39:27;13.00;11.00;9.00
46302;PMS7003;32029;51.358;5.628;2022-09-13T04:41:54;11.33;10.67;8.67
46302;PMS7003;32029;51.358;5.628;2022-09-13T04:44:21;14.67;12.67;10.00
46302;PMS7003;32029;51.358;5.628;2022-09-13T04:46:51;10.83;10.83;9.67
46302;PMS7003;32029;51.358;5.628;2022-09-13T04:49:18;15.00;14.00;10.33
46302;PMS7003;32029;51.358;5.628;2022-09-13T04:51:48;14.33;12.33;10.33
46302;PMS7003;32029;51.358;5.628;2022-09-13T04:54:15;12.67;12.67;10.00
46302;PMS7003;32029;51.358;5.628;2022-09-13T04:56:42;17.00;14.00;11.00
46302;PMS7003;32029;51.358;5.628;2022-09-13T04:59:10;15.67;14.00;11.00
46302;PMS7003;32029;51.358;5.628;2022-09-13T05:01:37;13.00;13.00;11.00
46302;PMS7003;32029;51.358;5.628;2022-09-13T05:04:07;15.33;13.00;10.67
46302;PMS7003;32029;51.358;5.628;2022-09-13T05:06:35;13.00;12.67;9.67
46302;PMS7003;32029;51.358;5.628;2022-09-13T05:09:01;13.33;13.33;10.00
46302;PMS7003;32029;51.358;5.628;2022-09-13T05:11:29;16.33;13.67;10.00
46302;PMS7003;32029;51.358;5.628;2022-09-13T05:13:56;14.00;14.00;11.67
46302;PMS7003;32029;51.358;5.628;2022-09-13T05:16:27;11.60;10.20;8.80
46302;PMS7003;32029;51.358;5.628;2022-09-13T05:18:55;14.33;14.00;10.00
46302;PMS7003;32029;51.358;5.628;2022-09-13T05:21:24;13.00;12.00;9.67
46302;PMS7003;32029;51.358;5.628;2022-09-13T05:23:53;14.33;12.00;10.00
46302;PMS7003;32029;51.358;5.628;2022-09-13T05:26:24;15.67;15.00;12.33
46302;PMS7003;32029;51.358;5.628;2022-09-13T05:28:52;11.33;11.33;9.67
46302;PMS7003;32029;51.358;5.628;2022-09-13T05:31:20;13.33;12.67;11.00
46302;PMS7003;32029;51.358;5.628;2022-09-13T05:33:57;12.33;10.67;9.00
46302;PMS7003;32029;51.358;5.628;2022-09-13T05:36:26;15.33;14.00;10.00
46302;PMS7003;32029;51.358;5.628;2022-09-13T05:38:54;16.33;14.00;11.00
46302;PMS7003;32029;51.358;5.628;2022-09-13T05:41:21;16.00;15.00;11.00
46302;PMS7003;32029;51.358;5.628;2022-09-13T05:43:48;7.67;7.67;7.33
46302;PMS7003;32029;51.358;5.628;2022-09-13T05:46:15;13.67;13.67;10.00
46302;PMS7003;32029;51.358;5.628;2022-09-13T05:48:45;14.33;14.00;11.00
46302;PMS7003;32029;51.358;5.628;2022-09-13T05:51:13;14.67;13.67;11.33
46302;PMS7003;32029;51.358;5.628;2022-09-13T05:53:42;12.00;12.00;9.67
46302;PMS7003;32029;51.358;5.628;2022-09-13T05:56:11;12.00;12.00;10.67
46302;PMS7003;32029;51.358;5.628;2022-09-13T05:58:46;15.33;13.33;10.67
46302;PMS7003;32029;51.358;5.628;2022-09-13T06:01:14;13.00;12.00;10.00
46302;PMS7003;32029;51.358;5.628;2022-09-13T06:03:51;13.33;12.00;9.67
46302;PMS7003;32029;51.358;5.628;2022-09-13T06:06:20;15.00;12.67;10.00
46302;PMS7003;32029;51.358;5.628;2022-09-13T06:08:50;12.50;12.00;10.00
46302;PMS7003;32029;51.358;5.628;2022-09-13T06:11:18;16.00;15.00;11.00
46302;PMS7003;32029;51.358;5.628;2022-09-13T06:13:45;13.67;13.00;9.00
46302;PMS7003;32029;51.358;5.628;2022-09-13T06:16:12;13.00;13.00;9.00
46302;PMS7003;32029;51.358;5.628;2022-09-13T06:18:40;12.33;12.33;10.33
46302;PMS7003;32029;51.358;5.628;2022-09-13T06:21:10;16.00;14.33;10.00
46302;PMS7003;32029;51.358;5.628;2022-09-13T06:23:43;13.00;12.00;10.00
46302;PMS7003;32029;51.358;5.628;2022-09-13T06:26:20;17.00;16.67;11.00
46302;PMS7003;32029;51.358;5.628;2022-09-13T06:28:50;14.00;13.00;10.67
46302;PMS7003;32029;51.358;5.628;2022-09-13T06:31:19;17.00;16.00;12.00
46302;PMS7003;32029;51.358;5.628;2022-09-13T06:33:47;14.00;13.00;11.67
46302;PMS7003;32029;51.358;5.628;2022-09-13T06:36:15;13.00;13.00;10.33
46302;PMS7003;32029;51.358;5.628;2022-09-13T06:38:46;16.67;15.67;12.00
46302;PMS7003;32029;51.358;5.628;2022-09-13T06:41:17;19.33;13.33;10.33
46302;PMS7003;32029;51.358;5.628;2022-09-13T06:43:46;13.67;13.67;10.00
46302;PMS7003;32029;51.358;5.628;2022-09-13T06:46:14;14.00;14.00;12.33
46302;PMS7003;32029;51.358;5.628;2022-09-13T06:48:43;15.67;15.67;12.67
46302;PMS7003;32029;51.358;5.628;2022-09-13T06:51:11;14.33;13.33;11.00
46302;PMS7003;32029;51.358;5.628;2022-09-13T06:53:40;17.67;14.67;11.00
46302;PMS7003;32029;51.358;5.628;2022-09-13T06:56:09;18.00;16.00;13.00
46302;PMS7003;32029;51.358;5.628;2022-09-13T06:58:39;15.67;14.33;11.00
46302;PMS7003;32029;51.358;5.628;2022-09-13T07:03:42;13.33;13.33;10.00
46302;PMS7003;32029;51.358;5.628;2022-09-13T07:06:28;12.33;12.33;9.33
46302;PMS7003;32029;51.358;5.628;2022-09-13T07:08:57;13.67;13.67;11.00
46302;PMS7003;32029;51.358;5.628;2022-09-13T07:11:26;14.00;13.00;11.00
46302;PMS7003;32029;51.358;5.628;2022-09-13T07:13:57;11.00;9.60;8.20
46302;PMS7003;32029;51.358;5.628;2022-09-13T07:16:28;15.00;14.00;12.33
46302;PMS7003;32029;51.358;5.628;2022-09-13T07:19:01;16.00;16.00;12.00
46302;PMS7003;32029;51.358;5.628;2022-09-13T07:21:32;14.33;13.00;11.33
46302;PMS7003;32029;51.358;5.628;2022-09-13T07:24:00;14.00;14.00;12.33
46302;PMS7003;32029;51.358;5.628;2022-09-13T07:26:27;17.00;15.50;13.00
46302;PMS7003;32029;51.358;5.628;2022-09-13T07:28:55;20.00;16.33;13.00
46302;PMS7003;32029;51.358;5.628;2022-09-13T07:31:34;17.50;17.00;14.00
46302;PMS7003;32029;51.358;5.628;2022-09-13T07:34:04;10.33;10.33;7.00
46302;PMS7003;32029;51.358;5.628;2022-09-13T07:36:33;12.33;12.33;10.33
46302;PMS7003;32029;51.358;5.628;2022-09-13T07:39:01;15.00;15.00;11.00
46302;PMS7003;32029;51.358;5.628;2022-09-13T07:41:30;15.33;14.67;11.67
46302;PMS7003;32029;51.358;5.628;2022-09-13T07:43:58;16.00;16.00;13.00
46302;PMS7003;32029;51.358;5.628;2022-09-13T07:46:36;17.50;17.50;12.50
46302;PMS7003;32029;51.358;5.628;2022-09-13T07:49:05;19.00;16.00;12.50
46302;PMS7003;32029;51.358;5.628;2022-09-13T07:51:34;18.00;17.00;13.00
46302;PMS7003;32029;51.358;5.628;2022-09-13T07:54:03;17.00;17.00;13.00
46302;PMS7003;32029;51.358;5.628;2022-09-13T07:56:34;21.33;20.33;14.33
46302;PMS7003;32029;51.358;5.628;2022-09-13T07:59:04;19.67;18.33;13.67
46302;PMS7003;32029;51.358;5.628;2022-09-13T08:04:11;17.33;16.33;12.33
46302;PMS7003;32029;51.358;5.628;2022-09-13T08:06:41;17.00;17.00;12.33
46302;PMS7003;32029;51.358;5.628;2022-09-13T08:09:10;17.00;17.00;13.00
46302;PMS7003;32029;51.358;5.628;2022-09-13T08:11:38;25.33;22.00;15.33
46302;PMS7003;32029;51.358;5.628;2022-09-13T08:14:12;21.00;20.00;15.00
46302;PMS7003;32029;51.358;5.628;2022-09-13T08:16:40;19.33;19.33;14.67
46302;PMS7003;32029;51.358;5.628;2022-09-13T08:19:10;25.33;22.67;15.67
46302;PMS7003;32029;51.358;5.628;2022-09-13T08:21:39;23.67;22.33;16.33
46302;PMS7003;32029;51.358;5.628;2022-09-13T08:24:10;23.00;22.00;15.33
46302;PMS7003;32029;51.358;5.628;2022-09-13T08:26:40;26.50;21.75;16.75
46302;PMS7003;32029;51.358;5.628;2022-09-13T08:29:07;23.00;22.00;17.00
46302;PMS7003;32029;51.358;5.628;2022-09-13T08:31:35;26.00;23.75;19.00
46302;PMS7003;32029;51.358;5.628;2022-09-13T08:34:02;28.00;24.67;18.67
46302;PMS7003;32029;51.358;5.628;2022-09-13T08:36:29;25.00;24.33;17.00
46302;PMS7003;32029;51.358;5.628;2022-09-13T08:38:57;30.67;23.00;17.33
46302;PMS7003;32029;51.358;5.628;2022-09-13T08:41:29;28.33;26.33;19.00
46302;PMS7003;32029;51.358;5.628;2022-09-13T08:44:17;36.00;31.00;19.00
46302;PMS7003;32029;51.358;5.628;2022-09-13T08:47:20;33.00;29.00;19.00
46302;PMS7003;32029;51.358;5.628;2022-09-13T08:49:58;26.75;24.75;17.75
46302;PMS7003;32029;51.358;5.628;2022-09-13T08:52:28;29.25;27.75;20.50
46302;PMS7003;32029;51.358;5.628;2022-09-13T08:54:59;23.67;21.33;16.00
46302;PMS7003;32029;51.358;5.628;2022-09-13T08:57:39;26.00;24.00;17.00
46302;PMS7003;32029;51.358;5.628;2022-09-13T09:00:22;20.33;19.33;14.67
46302;PMS7003;32029;51.358;5.628;2022-09-13T09:03:50;22.67;20.67;16.00
46302;PMS7003;32029;51.358;5.628;2022-09-13T09:06:06;22.67;22.67;16.00
46302;PMS7003;32029;51.358;5.628;2022-09-13T09:08:40;24.67;21.00;15.00
46302;PMS7003;32029;51.358;5.628;2022-09-13T09:11:11;20.00;20.00;15.00
46302;PMS7003;32029;51.358;5.628;2022-09-13T09:17:04;20.00;20.00;15.00
46302;PMS7003;32029;51.358;5.628;2022-09-13T09:19:53;13.00;11.67;9.00
46302;PMS7003;32029;51.358;5.628;2022-09-13T09:22:34;22.00;20.00;14.67
46302;PMS7003;32029;51.358;5.628;2022-09-13T09:25:02;11.33;11.33;9.00
46302;PMS7003;32029;51.358;5.628;2022-09-13T09:27:30;11.67;11.33;9.33
46302;PMS7003;32029;51.358;5.628;2022-09-13T09:29:57;17.33;15.00;10.67
46302;PMS7003;32029;51.358;5.628;2022-09-13T09:32:33;14.00;14.00;10.33
46302;PMS7003;32029;51.358;5.628;2022-09-13T09:40:41;14.33;13.33;10.00
46302;PMS7003;32029;51.358;5.628;2022-09-13T09:43:11;16.00;15.00;13.00
46302;PMS7003;32029;51.358;5.628;2022-09-13T09:45:45;11.00;10.33;8.00
46302;PMS7003;32029;51.358;5.628;2022-09-13T09:48:14;12.00;11.00;9.00
46302;PMS7003;32029;51.358;5.628;2022-09-13T09:50:45;10.00;9.00;8.00
46302;PMS7003;32029;51.358;5.628;2022-09-13T09:53:17;11.67;10.67;8.67
46302;PMS7003;32029;51.358;5.628;2022-09-13T09:55:56;13.67;13.00;9.00
46302;PMS7003;32029;51.358;5.628;2022-09-13T09:59:01;11.33;10.00;8.33
46302;PMS7003;32029;51.358;5.628;2022-09-13T10:01:33;11.67;11.67;9.00
46302;PMS7003;32029;51.358;5.628;2022-09-13T10:06:36;17.33;14.00;10.33
46302;PMS7003;32029;51.358;5.628;2022-09-13T10:09:06;14.00;13.33;11.67
46302;PMS7003;32029;51.358;5.628;2022-09-13T10:11:54;13.33;13.33;11.00
46302;PMS7003;32029;51.358;5.628;2022-09-13T10:20:18;12.00;12.00;9.33
46302;PMS7003;32029;51.358;5.628;2022-09-13T10:23:08;10.00;10.00;8.67
46302;PMS7003;32029;51.358;5.628;2022-09-13T10:25:39;16.67;12.67;9.67
46302;PMS7003;32029;51.358;5.628;2022-09-13T10:28:10;11.00;11.00;8.00
46302;PMS7003;32029;51.358;5.628;2022-09-13T10:30:45;11.00;11.00;9.00
46302;PMS7003;32029;51.358;5.628;2022-09-13T10:33:21;11.00;11.00;8.33
46302;PMS7003;32029;51.358;5.628;2022-09-13T10:35:55;13.00;11.00;9.00
46302;PMS7003;32029;51.358;5.628;2022-09-13T10:38:28;10.33;9.00;7.00
46302;PMS7003;32029;51.358;5.628;2022-09-13T10:41:08;14.00;12.67;10.00
46302;PMS7003;32029;51.358;5.628;2022-09-13T10:43:36;9.00;9.00;7.00
46302;PMS7003;32029;51.358;5.628;2022-09-13T10:46:04;10.67;10.00;8.00
46302;PMS7003;32029;51.358;5.628;2022-09-13T10:48:44;10.33;10.33;8.67
46302;PMS7003;32029;51.358;5.628;2022-09-13T10:51:19;14.00;12.00;9.00
46302;PMS7003;32029;51.358;5.628;2022-09-13T10:56:41;12.00;12.00;9.00
46302;PMS7003;32029;51.358;5.628;2022-09-13T11:04:47;8.60;7.80;6.00
46302;PMS7003;32029;51.358;5.628;2022-09-13T11:07:41;12.33;10.33;7.33
46302;PMS7003;32029;51.358;5.628;2022-09-13T11:12:54;14.33;12.67;8.00
46302;PMS7003;32029;51.358;5.628;2022-09-13T11:21:21;11.33;9.33;7.33
46302;PMS7003;32029;51.358;5.628;2022-09-13T11:24:04;13.67;12.00;10.33
46302;PMS7003;32029;51.358;5.628;2022-09-13T11:26:37;14.33;10.00;7.67
46302;PMS7003;32029;51.358;5.628;2022-09-13T11:29:28;13.67;13.67;11.33
46302;PMS7003;32029;51.358;5.628;2022-09-13T11:43:07;17.00;16.00;12.33
46302;PMS7003;32029;51.358;5.628;2022-09-13T11:45:53;20.50;19.00;13.50
46302;PMS7003;32029;51.358;5.628;2022-09-13T11:48:31;15.00;14.00;11.33
46302;PMS7003;32029;51.358;5.628;2022-09-13T11:51:20;12.67;12.00;9.00
46302;PMS7003;32029;51.358;5.628;2022-09-13T11:56:48;12.50;11.00;9.00
46302;PMS7003;32029;51.358;5.628;2022-09-13T12:01:57;11.00;11.00;8.33
46302;PMS7003;32029;51.358;5.628;2022-09-13T12:04:44;17.00;15.00;12.00
46302;PMS7003;32029;51.358;5.628;2022-09-13T12:07:30;14.67;13.67;9.00
46302;PMS7003;32029;51.358;5.628;2022-09-13T12:10:05;13.00;12.33;8.67
46302;PMS7003;32029;51.358;5.628;2022-09-13T12:12:39;15.50;15.50;10.00
46302;PMS7003;32029;51.358;5.628;2022-09-13T12:18:12;14.67;13.67;11.00
46302;PMS7003;32029;51.358;5.628;2022-09-13T12:20:49;11.33;10.00;7.67
46302;PMS7003;32029;51.358;5.628;2022-09-13T12:23:38;11.67;10.33;7.67
46302;PMS7003;32029;51.358;5.628;2022-09-13T12:26:18;11.67;11.67;9.00
46302;PMS7003;32029;51.358;5.628;2022-09-13T12:28:50;16.50;15.00;12.50
46302;PMS7003;32029;51.358;5.628;2022-09-13T12:31:26;17.33;16.00;13.00
46302;PMS7003;32029;51.358;5.628;2022-09-13T12:33:55;13.67;11.00;9.00
46302;PMS7003;32029;51.358;5.628;2022-09-13T12:42:53;10.00;10.00;8.00
46302;PMS7003;32029;51.358;5.628;2022-09-13T12:54:06;15.50;14.00;11.50
46302;PMS7003;32029;51.358;5.628;2022-09-13T12:56:41;11.33;11.33;9.00
46302;PMS7003;32029;51.358;5.628;2022-09-13T13:01:52;17.00;16.00;13.50
46302;PMS7003;32029;51.358;5.628;2022-09-13T13:04:21;16.50;14.50;11.00
46302;PMS7003;32029;51.358;5.628;2022-09-13T13:06:52;9.67;8.33;6.00
46302;PMS7003;32029;51.358;5.628;2022-09-13T13:09:41;13.67;13.00;10.67
46302;PMS7003;32029;51.358;5.628;2022-09-13T13:12:25;9.33;8.67;7.33
46302;PMS7003;32029;51.358;5.628;2022-09-13T13:17:48;15.00;15.00;12.00
46302;PMS7003;32029;51.358;5.628;2022-09-13T13:28:50;20.33;20.33;16.00
46302;PMS7003;32029;51.358;5.628;2022-09-13T13:31:36;16.33;14.00;11.00
46302;PMS7003;32029;51.358;5.628;2022-09-13T13:41:57;10.33;9.67;8.67
46302;PMS7003;32029;51.358;5.628;2022-09-13T13:49:40;16.33;15.00;12.00
46302;PMS7003;32029;51.358;5.628;2022-09-13T14:10:49;23.00;20.00;14.00
46302;PMS7003;32029;51.358;5.628;2022-09-13T14:24:35;11.33;11.33;10.00
46302;PMS7003;32029;51.358;5.628;2022-09-13T14:27:03;16.67;13.67;10.67
46302;PMS7003;32029;51.358;5.628;2022-09-13T14:29:31;11.67;11.00;9.67
46302;PMS7003;32029;51.358;5.628;2022-09-13T14:32:02;12.00;12.00;9.33
46302;PMS7003;32029;51.358;5.628;2022-09-13T14:34:35;10.33;10.33;8.67
46302;PMS7003;32029;51.358;5.628;2022-09-13T14:37:05;12.67;12.67;10.33
46302;PMS7003;32029;51.358;5.628;2022-09-13T14:39:57;14.67;14.67;12.33
46302;PMS7003;32029;51.358;5.628;2022-09-13T14:42:36;12.00;12.00;10.33
46302;PMS7003;32029;51.358;5.628;2022-09-13T14:45:04;13.33;13.33;10.00
46302;PMS7003;32029;51.358;5.628;2022-09-13T14:47:34;10.33;9.33;8.33
46302;PMS7003;32029;51.358;5.628;2022-09-13T14:50:11;14.00;12.00;9.67
46302;PMS7003;32029;51.358;5.628;2022-09-13T14:52:47;11.67;11.67;9.33
46302;PMS7003;32029;51.358;5.628;2022-09-13T14:55:19;10.00;10.00;9.00
46302;PMS7003;32029;51.358;5.628;2022-09-13T14:57:54;12.00;11.33;9.67
46302;PMS7003;32029;51.358;5.628;2022-09-13T15:00:29;12.67;10.00;8.00
46302;PMS7003;32029;51.358;5.628;2022-09-13T15:03:03;9.67;9.67;8.67
46302;PMS7003;32029;51.358;5.628;2022-09-13T15:05:38;12.33;12.33;10.00
46302;PMS7003;32029;51.358;5.628;2022-09-13T15:10:52;11.00;10.33;8.00
46302;PMS7003;32029;51.358;5.628;2022-09-13T15:13:22;12.00;11.00;9.00
46302;PMS7003;32029;51.358;5.628;2022-09-13T15:15:49;11.67;11.33;9.00
46302;PMS7003;32029;51.358;5.628;2022-09-13T15:20:48;10.33;9.00;8.00
46302;PMS7003;32029;51.358;5.628;2022-09-13T15:26:00;8.20;7.60;6.80
46302;PMS7003;32029;51.358;5.628;2022-09-13T15:28:32;10.67;9.00;8.33
46302;PMS7003;32029;51.358;5.628;2022-09-13T15:31:17;9.67;9.00;7.33
46302;PMS7003;32029;51.358;5.628;2022-09-13T15:36:39;10.00;10.00;8.00
46302;PMS7003;32029;51.358;5.628;2022-09-13T15:41:36;10.00;8.00;7.33
46302;PMS7003;32029;51.358;5.628;2022-09-13T15:44:05;11.67;10.00;8.33
46302;PMS7003;32029;51.358;5.628;2022-09-13T15:46:42;13.00;12.00;9.67
46302;PMS7003;32029;51.358;5.628;2022-09-13T15:49:15;10.33;9.33;8.00
46302;PMS7003;32029;51.358;5.628;2022-09-13T15:51:43;12.33;12.33;10.33
46302;PMS7003;32029;51.358;5.628;2022-09-13T15:54:11;16.00;11.33;10.00
46302;PMS7003;32029;51.358;5.628;2022-09-13T15:56:43;13.67;12.00;9.33
46302;PMS7003;32029;51.358;5.628;2022-09-13T15:59:12;14.67;14.67;11.00
46302;PMS7003;32029;51.358;5.628;2022-09-13T16:01:40;13.00;13.00;10.33
46302;PMS7003;32029;51.358;5.628;2022-09-13T16:04:07;9.00;9.00;7.67
46302;PMS7003;32029;51.358;5.628;2022-09-13T16:06:34;8.67;8.00;7.00
46302;PMS7003;32029;51.358;5.628;2022-09-13T16:09:22;6.60;5.80;4.80
46302;PMS7003;32029;51.358;5.628;2022-09-13T16:11:50;9.00;9.00;7.00
46302;PMS7003;32029;51.358;5.628;2022-09-13T16:14:17;8.67;8.00;7.00
46302;PMS7003;32029;51.358;5.628;2022-09-13T16:16:46;9.00;9.00;8.00
46302;PMS7003;32029;51.358;5.628;2022-09-13T16:19:19;12.00;10.40;8.20
46302;PMS7003;32029;51.358;5.628;2022-09-13T16:21:48;10.33;10.33;8.00
46302;PMS7003;32029;51.358;5.628;2022-09-13T16:24:15;10.00;10.00;8.67
46302;PMS7003;32029;51.358;5.628;2022-09-13T16:26:42;11.33;9.67;8.67
46302;PMS7003;32029;51.358;5.628;2022-09-13T16:29:10;12.00;9.80;8.80
46302;PMS7003;32029;51.358;5.628;2022-09-13T16:31:37;12.33;11.33;9.00
46302;PMS7003;32029;51.358;5.628;2022-09-13T16:34:04;11.67;10.67;9.00
46302;PMS7003;32029;51.358;5.628;2022-09-13T16:36:31;11.33;9.00;6.67
46302;PMS7003;32029;51.358;5.628;2022-09-13T16:38:59;10.33;10.33;8.67
46302;PMS7003;32029;51.358;5.628;2022-09-13T16:41:26;15.67;11.00;9.00
46302;PMS7003;32029;51.358;5.628;2022-09-13T16:43:53;13.33;12.33;9.00
46302;PMS7003;32029;51.358;5.628;2022-09-13T16:46:20;12.00;11.00;9.00
46302;PMS7003;32029;51.358;5.628;2022-09-13T16:48:54;11.00;11.00;8.00
46302;PMS7003;32029;51.358;5.628;2022-09-13T16:51:21;11.00;10.33;8.33
46302;PMS7003;32029;51.358;5.628;2022-09-13T16:53:49;11.33;11.33;9.00
46302;PMS7003;32029;51.358;5.628;2022-09-13T16:56:18;11.67;10.67;8.67
46302;PMS7003;32029;51.358;5.628;2022-09-13T16:58:47;9.33;9.33;8.00
46302;PMS7003;32029;51.358;5.628;2022-09-13T17:01:15;12.00;11.00;8.33
46302;PMS7003;32029;51.358;5.628;2022-09-13T17:03:44;13.67;11.33;8.00
46302;PMS7003;32029;51.358;5.628;2022-09-13T17:06:12;10.00;10.00;8.00
46302;PMS7003;32029;51.358;5.628;2022-09-13T17:08:40;9.00;9.00;8.00
46302;PMS7003;32029;51.358;5.628;2022-09-13T17:11:12;6.80;6.00;4.00
46302;PMS7003;32029;51.358;5.628;2022-09-13T17:13:41;8.67;8.00;7.00
46302;PMS7003;32029;51.358;5.628;2022-09-13T17:16:18;7.33;7.00;6.00
46302;PMS7003;32029;51.358;5.628;2022-09-13T17:18:49;10.20;10.00;8.00
46302;PMS7003;32029;51.358;5.628;2022-09-13T17:21:17;11.33;9.00;7.67
46302;PMS7003;32029;51.358;5.628;2022-09-13T17:23:45;7.80;7.80;6.60
46302;PMS7003;32029;51.358;5.628;2022-09-13T17:26:12;9.00;7.00;6.00
46302;PMS7003;32029;51.358;5.628;2022-09-13T17:28:39;7.60;7.00;6.00
46302;PMS7003;32029;51.358;5.628;2022-09-13T17:31:07;6.00;6.00;5.00
46302;PMS7003;32029;51.358;5.628;2022-09-13T17:33:35;8.00;7.20;6.00
46302;PMS7003;32029;51.358;5.628;2022-09-13T17:36:05;6.20;6.20;5.80
46302;PMS7003;32029;51.358;5.628;2022-09-13T17:38:35;6.00;6.00;5.80
46302;PMS7003;32029;51.358;5.628;2022-09-13T17:41:04;8.00;6.20;5.20
46302;PMS7003;32029;51.358;5.628;2022-09-13T17:43:39;7.00;7.00;5.80
46302;PMS7003;32029;51.358;5.628;2022-09-13T17:46:10;6.40;6.00;5.20
46302;PMS7003;32029;51.358;5.628;2022-09-13T17:48:48;5.00;5.00;5.00
46302;PMS7003;32029;51.358;5.628;2022-09-13T17:51:19;7.80;6.80;5.60